createdAt,value
2017-09-04T00:00:52.774Z,9.84
2017-09-04T00:02:14.264Z,9.87
2017-09-04T00:03:36.114Z,9.89
2017-09-04T00:04:57.935Z,9.86
2017-09-04T00:06:20.092Z,9.86
2017-09-04T00:07:42.481Z,9.78
2017-09-04T00:09:03.984Z,9.78
2017-09-04T00:10:25.669Z,9.83
2017-09-04T00:11:47.537Z,9.75
2017-09-04T00:13:09.705Z,9.86
2017-09-04T00:14:31.514Z,9.76
2017-09-04T00:15:53.030Z,9.71
2017-09-04T00:17:14.873Z,9.68
2017-09-04T00:18:37.034Z,9.69
2017-09-04T00:19:59.183Z,9.72
2017-09-04T00:21:21.017Z,9.74
2017-09-04T00:22:42.844Z,9.71
2017-09-04T00:24:05.035Z,9.66
2017-09-04T00:25:27.194Z,9.68
2017-09-04T00:26:49.044Z,9.64
2017-09-04T00:28:10.964Z,9.71
2017-09-04T00:29:33.044Z,9.71
2017-09-04T00:30:54.892Z,9.58
2017-09-04T00:32:17.044Z,9.56
2017-09-04T00:33:39.287Z,9.57
2017-09-04T00:35:01.789Z,9.6
2017-09-04T00:36:23.614Z,9.58
2017-09-04T00:37:46.069Z,9.56
2017-09-04T00:39:07.951Z,9.6
2017-09-04T00:40:30.664Z,9.6
2017-09-04T00:41:53.133Z,9.57
2017-09-04T00:43:15.338Z,9.54
2017-09-04T00:44:37.791Z,9.53
2017-09-04T00:46:00.184Z,9.4
2017-09-04T00:47:22.356Z,9.47
2017-09-04T00:48:44.823Z,9.53
2017-09-04T00:50:06.634Z,9.47
2017-09-04T00:51:29.130Z,9.5
2017-09-04T00:52:51.633Z,9.48
2017-09-04T00:54:13.134Z,9.42
2017-09-04T00:55:35.598Z,9.42
2017-09-04T00:56:57.823Z,9.4
2017-09-04T00:58:19.973Z,9.4
2017-09-04T00:59:42.060Z,9.4
2017-09-04T01:01:04.216Z,9.43
2017-09-04T01:02:27.173Z,9.32
2017-09-04T01:03:49.622Z,9.26
2017-09-04T01:05:11.134Z,9.29
2017-09-04T01:06:33.762Z,9.29
2017-09-04T01:07:55.946Z,9.29
2017-09-04T01:09:18.119Z,9.33
2017-09-04T01:10:40.111Z,9.24
2017-09-04T01:12:02.617Z,9.21
2017-09-04T01:13:24.408Z,9.14
2017-09-04T01:14:46.553Z,9.14
2017-09-04T01:16:08.700Z,9.1
2017-09-04T01:17:30.843Z,8.99
2017-09-04T01:18:52.994Z,9.02
2017-09-04T01:20:14.491Z,8.92
2017-09-04T01:21:36.416Z,8.92
2017-09-04T01:22:58.664Z,8.96
2017-09-04T01:24:21.061Z,8.8
2017-09-04T01:25:43.253Z,8.81
2017-09-04T01:27:05.095Z,8.74
2017-09-04T01:28:26.973Z,8.71
2017-09-04T01:29:48.873Z,8.83
2017-09-04T01:31:10.998Z,8.83
2017-09-04T01:32:32.870Z,8.87
2017-09-04T01:33:55.044Z,8.94
2017-09-04T01:35:17.544Z,8.96
2017-09-04T01:36:39.360Z,8.94
2017-09-04T01:38:01.523Z,8.96
2017-09-04T01:39:23.368Z,8.89
2017-09-04T01:40:45.113Z,8.94
2017-09-04T01:42:07.696Z,8.98
2017-09-04T01:43:29.520Z,8.94
2017-09-04T01:44:50.698Z,8.95
2017-09-04T01:46:12.563Z,8.95
2017-09-04T01:47:34.393Z,8.84
2017-09-04T01:48:56.264Z,8.81
2017-09-04T01:50:17.808Z,8.8
2017-09-04T01:51:40.252Z,8.74
2017-09-04T01:53:02.373Z,8.79
2017-09-04T01:54:24.923Z,8.77
2017-09-04T01:55:46.757Z,8.76
2017-09-04T01:57:08.664Z,8.62
2017-09-04T01:58:29.831Z,8.68
2017-09-04T01:59:51.022Z,8.66
2017-09-04T02:01:12.853Z,8.52
2017-09-04T02:02:34.733Z,8.56
2017-09-04T02:03:56.713Z,8.41
2017-09-04T02:05:18.853Z,8.37
2017-09-04T02:06:41.093Z,8.28
2017-09-04T02:08:03.893Z,8.28
2017-09-04T02:09:26.056Z,8.36
2017-09-04T02:10:47.573Z,8.11
2017-09-04T02:12:09.762Z,8.19
2017-09-04T02:13:31.760Z,8.19
2017-09-04T02:14:53.583Z,8.29
2017-09-04T02:16:15.712Z,8.15
2017-09-04T02:17:37.851Z,8.15
2017-09-04T02:19:00.017Z,8.15
2017-09-04T02:20:22.468Z,8.16
2017-09-04T02:21:44.621Z,8.12
2017-09-04T02:23:06.758Z,8.25
2017-09-04T02:24:29.253Z,8.29
2017-09-04T02:25:51.079Z,8.19
2017-09-04T02:27:12.596Z,8.15
2017-09-04T02:28:34.432Z,8.12
2017-09-04T02:29:56.160Z,8.18
2017-09-04T02:31:17.983Z,8.19
2017-09-04T02:32:39.163Z,8.11
2017-09-04T02:34:00.653Z,8.11
2017-09-04T02:35:23.110Z,8.07
2017-09-04T02:36:44.930Z,8.18
2017-09-04T02:38:06.752Z,8.1
2017-09-04T02:39:28.592Z,8.2
2017-09-04T02:40:50.103Z,8.19
2017-09-04T02:42:12.303Z,8.15
2017-09-04T02:43:34.260Z,8.18
2017-09-04T02:44:56.445Z,8.16
2017-09-04T02:46:18.568Z,8.22
2017-09-04T02:47:40.776Z,8.11
2017-09-04T02:49:02.282Z,8.19
2017-09-04T02:50:23.788Z,8.2
2017-09-04T02:51:44.993Z,8.19
2017-09-04T02:53:07.193Z,8.18
2017-09-04T02:54:29.337Z,8.2
2017-09-04T02:55:51.162Z,8.18
2017-09-04T02:57:13.733Z,8.15
2017-09-04T02:58:35.557Z,8.2
2017-09-04T02:59:57.394Z,8.11
2017-09-04T03:01:19.872Z,8.02
2017-09-04T03:02:42.353Z,8.04
2017-09-04T03:04:04.807Z,8.1
2017-09-04T03:05:27.290Z,8.04
2017-09-04T03:06:49.503Z,8.11
2017-09-04T03:08:12.010Z,8.22
2017-09-04T03:09:33.644Z,8.2
2017-09-04T03:10:56.121Z,8.22
2017-09-04T03:12:17.955Z,8.15
2017-09-04T03:13:39.828Z,8.2
2017-09-04T03:15:02.146Z,8.19
2017-09-04T03:16:23.973Z,8.12
2017-09-04T03:17:45.154Z,8.15
2017-09-04T03:19:07.869Z,8.18
2017-09-04T03:20:29.695Z,8.28
2017-09-04T03:21:51.847Z,8.19
2017-09-04T03:23:14.013Z,8.19
2017-09-04T03:24:36.191Z,8.15
2017-09-04T03:25:57.680Z,8.22
2017-09-04T03:27:19.822Z,8.12
2017-09-04T03:28:41.693Z,8.18
2017-09-04T03:30:04.144Z,8.22
2017-09-04T03:31:26.408Z,8.16
2017-09-04T03:32:47.910Z,8.18
2017-09-04T03:34:09.733Z,8.07
2017-09-04T03:35:32.171Z,8.07
2017-09-04T03:36:53.665Z,8.08
2017-09-04T03:38:15.819Z,8.08
2017-09-04T03:39:37.018Z,8.07
2017-09-04T03:40:59.843Z,8.04
2017-09-04T03:42:21.028Z,8.04
2017-09-04T03:43:42.853Z,8.05
2017-09-04T03:45:05.314Z,8.07
2017-09-04T03:46:27.497Z,8.07
2017-09-04T03:47:49.719Z,8.04
2017-09-04T03:49:11.213Z,8.04
2017-09-04T03:50:33.039Z,7.97
2017-09-04T03:51:54.522Z,7.97
2017-09-04T03:53:16.702Z,7.98
2017-09-04T03:54:38.262Z,7.77
2017-09-04T03:56:00.075Z,7.89
2017-09-04T03:57:22.371Z,7.79
2017-09-04T03:58:44.817Z,7.79
2017-09-04T04:00:06.615Z,7.82
2017-09-04T04:01:29.094Z,7.8
2017-09-04T04:02:51.220Z,7.71
2017-09-04T04:04:13.185Z,7.77
2017-09-04T04:05:35.643Z,7.85
2017-09-04T04:06:57.488Z,7.93
2017-09-04T04:08:19.993Z,7.85
2017-09-04T04:09:41.493Z,7.93
2017-09-04T04:11:03.953Z,7.92
2017-09-04T04:12:26.103Z,8.02
2017-09-04T04:13:48.214Z,8.04
2017-09-04T04:15:10.709Z,8
2017-09-04T04:16:32.202Z,8.04
2017-09-04T04:17:54.018Z,7.92
2017-09-04T04:19:16.144Z,7.98
2017-09-04T04:20:38.773Z,7.93
2017-09-04T04:22:00.923Z,7.93
2017-09-04T04:23:23.072Z,7.9
2017-09-04T04:24:45.163Z,7.93
2017-09-04T04:26:06.413Z,7.9
2017-09-04T04:27:28.845Z,7.93
2017-09-04T04:28:50.663Z,7.93
2017-09-04T04:30:13.176Z,8.05
2017-09-04T04:31:34.676Z,7.93
2017-09-04T04:32:56.496Z,7.93
2017-09-04T04:34:18.663Z,7.92
2017-09-04T04:35:41.565Z,7.82
2017-09-04T04:37:03.384Z,7.83
2017-09-04T04:38:25.213Z,7.86
2017-09-04T04:39:46.733Z,7.85
2017-09-04T04:41:09.265Z,7.93
2017-09-04T04:42:31.722Z,7.89
2017-09-04T04:43:53.874Z,8.05
2017-09-04T04:45:15.693Z,8.02
2017-09-04T04:46:38.217Z,7.98
2017-09-04T04:48:00.422Z,8.02
2017-09-04T04:49:22.574Z,7.92
2017-09-04T04:50:44.724Z,7.93
2017-09-04T04:52:07.235Z,7.9
2017-09-04T04:53:29.074Z,7.95
2017-09-04T04:54:50.612Z,8
2017-09-04T04:56:12.810Z,8.04
2017-09-04T04:57:34.948Z,8.18
2017-09-04T04:58:57.094Z,8.2
2017-09-04T05:00:19.254Z,8.15
2017-09-04T05:01:41.396Z,8.26
2017-09-04T05:03:03.627Z,8.4
2017-09-04T05:04:25.543Z,8.44
2017-09-04T05:05:47.432Z,8.5
2017-09-04T05:07:08.303Z,8.7
2017-09-04T05:08:30.970Z,8.63
2017-09-04T05:09:52.842Z,8.74
2017-09-04T05:11:15.307Z,8.81
2017-09-04T05:12:37.451Z,8.92
2017-09-04T05:14:00.016Z,8.92
2017-09-04T05:15:22.486Z,8.89
2017-09-04T05:16:44.755Z,9.08
2017-09-04T05:18:06.583Z,8.96
2017-09-04T05:19:29.418Z,9.14
2017-09-04T05:20:51.282Z,9.2
2017-09-04T05:22:13.114Z,9.18
2017-09-04T05:23:35.000Z,9.33
2017-09-04T05:24:57.076Z,9.39
2017-09-04T05:26:19.221Z,9.38
2017-09-04T05:27:41.373Z,9.51
2017-09-04T05:29:03.223Z,9.57
2017-09-04T05:30:25.713Z,9.6
2017-09-04T05:31:47.978Z,9.66
2017-09-04T05:33:10.190Z,9.76
2017-09-04T05:34:32.331Z,9.93
2017-09-04T05:35:54.593Z,9.9
2017-09-04T05:37:17.053Z,10.09
2017-09-04T05:38:39.224Z,10.15
2017-09-04T05:40:00.723Z,10.2
2017-09-04T05:41:22.881Z,10.34
2017-09-04T05:42:44.722Z,10.42
2017-09-04T05:44:06.993Z,10.55
2017-09-04T05:45:28.853Z,11.28
2017-09-04T05:46:51.061Z,12.09
2017-09-04T05:48:13.209Z,13.15
2017-09-04T05:49:35.073Z,14.15
2017-09-04T05:50:56.974Z,15.1
2017-09-04T05:52:19.349Z,16.02
2017-09-04T05:53:41.801Z,16.85
2017-09-04T05:55:03.691Z,17.49
2017-09-04T05:56:25.643Z,17.92
2017-09-04T05:57:47.781Z,18.36
2017-09-04T05:59:09.645Z,18.51
2017-09-04T06:00:31.252Z,18.67
2017-09-04T06:01:53.723Z,18.91
2017-09-04T06:03:15.533Z,19.08
2017-09-04T06:04:36.735Z,19.36
2017-09-04T06:05:58.595Z,19.68
2017-09-04T06:07:20.114Z,20.02
2017-09-04T06:08:42.921Z,20.28
2017-09-04T06:10:05.085Z,20.47
2017-09-04T06:11:27.246Z,20.72
2017-09-04T06:12:48.855Z,20.73
2017-09-04T06:14:11.144Z,20.73
2017-09-04T06:15:33.413Z,20.72
2017-09-04T06:16:55.584Z,20.64
2017-09-04T06:18:17.755Z,20.77
2017-09-04T06:19:39.563Z,21.03
2017-09-04T06:21:02.044Z,21.14
2017-09-04T06:22:24.577Z,21.28
2017-09-04T06:23:46.902Z,21.84
2017-09-04T06:25:09.344Z,21.86
2017-09-04T06:26:31.497Z,22.31
2017-09-04T06:27:53.973Z,22.73
2017-09-04T06:29:15.490Z,22.91
2017-09-04T06:30:38.141Z,23.17
2017-09-04T06:31:59.652Z,23.32
2017-09-04T06:33:21.493Z,23.55
2017-09-04T06:34:42.704Z,23.88
2017-09-04T06:36:05.142Z,24.2
2017-09-04T06:37:26.655Z,24.43
2017-09-04T06:38:49.142Z,24.76
2017-09-04T06:40:11.303Z,24.9
2017-09-04T06:41:33.763Z,24.93
2017-09-04T06:42:54.943Z,25.21
2017-09-04T06:44:16.141Z,25.39
2017-09-04T06:45:37.993Z,25.72
2017-09-04T06:47:00.643Z,25.94
2017-09-04T06:48:22.253Z,26.07
2017-09-04T06:49:43.933Z,26.21
2017-09-04T06:51:06.414Z,26.5
2017-09-04T06:52:28.993Z,26.85
2017-09-04T06:53:50.820Z,27.04
2017-09-04T06:55:12.363Z,27.18
2017-09-04T06:56:34.844Z,27.24
2017-09-04T06:57:57.382Z,27.46
2017-09-04T06:59:19.569Z,27.62
2017-09-04T07:00:41.401Z,27.74
2017-09-04T07:02:03.240Z,27.87
2017-09-04T07:03:25.993Z,27.79
2017-09-04T07:04:48.504Z,27.96
2017-09-04T07:06:09.743Z,28.03
2017-09-04T07:07:32.010Z,28.18
2017-09-04T07:08:54.196Z,28.4
2017-09-04T07:10:16.658Z,28.46
2017-09-04T07:11:39.162Z,28.51
2017-09-04T07:13:00.953Z,28.61
2017-09-04T07:14:23.462Z,28.61
2017-09-04T07:15:45.642Z,28.68
2017-09-04T07:17:07.822Z,28.7
2017-09-04T07:18:29.445Z,28.83
2017-09-04T07:19:52.543Z,28.98
2017-09-04T07:21:14.746Z,28.92
2017-09-04T07:22:36.552Z,28.89
2017-09-04T07:23:59.603Z,28.77
2017-09-04T07:25:21.702Z,28.74
2017-09-04T07:26:43.882Z,28.93
2017-09-04T07:28:05.401Z,29.04
2017-09-04T07:29:26.654Z,29.04
2017-09-04T07:30:48.862Z,29.06
2017-09-04T07:32:10.843Z,29.12
2017-09-04T07:33:33.005Z,29.23
2017-09-04T07:34:55.213Z,29.24
2017-09-04T07:36:17.163Z,29.37
2017-09-04T07:37:38.996Z,29.28
2017-09-04T07:39:00.892Z,29
2017-09-04T07:40:23.156Z,29.04
2017-09-04T07:41:45.661Z,29.02
2017-09-04T07:43:07.828Z,29.08
2017-09-04T07:44:29.668Z,28.96
2017-09-04T07:45:51.231Z,28.18
2017-09-04T07:47:13.409Z,27.19
2017-09-04T07:48:35.292Z,25.85
2017-09-04T07:49:57.813Z,24.78
2017-09-04T07:51:20.034Z,23.76
2017-09-04T07:52:42.768Z,22.97
2017-09-04T07:54:05.043Z,22.21
2017-09-04T07:55:27.214Z,21.69
2017-09-04T07:56:49.359Z,21.27
2017-09-04T07:58:11.861Z,20.88
2017-09-04T07:59:34.062Z,20.72
2017-09-04T08:00:55.582Z,20.39
2017-09-04T08:02:17.421Z,20.21
2017-09-04T08:03:39.653Z,20.01
2017-09-04T08:05:00.851Z,19.98
2017-09-04T08:06:22.826Z,19.95
2017-09-04T08:07:45.104Z,19.71
2017-09-04T08:09:07.225Z,19.5
2017-09-04T08:10:29.501Z,19.54
2017-09-04T08:11:51.472Z,19.4
2017-09-04T08:13:13.309Z,19.44
2017-09-04T08:14:35.126Z,19.66
2017-09-04T08:15:57.062Z,19.66
2017-09-04T08:17:19.222Z,19.91
2017-09-04T08:18:41.104Z,19.87
2017-09-04T08:20:02.904Z,19.74
2017-09-04T08:21:25.169Z,19.83
2017-09-04T08:22:47.008Z,19.77
2017-09-04T08:24:08.845Z,19.84
2017-09-04T08:25:30.944Z,19.88
2017-09-04T08:26:53.098Z,19.99
2017-09-04T08:28:15.251Z,19.95
2017-09-04T08:29:36.759Z,19.84
2017-09-04T08:30:58.582Z,19.96
2017-09-04T08:32:20.402Z,20.01
2017-09-04T08:33:42.304Z,20.1
2017-09-04T08:35:03.822Z,20.08
2017-09-04T08:36:26.723Z,19.96
2017-09-04T08:37:49.197Z,19.94
2017-09-04T08:39:11.877Z,19.96
2017-09-04T08:40:33.554Z,19.94
2017-09-04T08:41:55.754Z,20.13
2017-09-04T08:43:17.592Z,20.1
2017-09-04T08:44:39.431Z,20.21
2017-09-04T08:46:01.270Z,20.32
2017-09-04T08:47:22.758Z,20.38
2017-09-04T08:48:44.592Z,20.5
2017-09-04T08:50:06.811Z,20.52
2017-09-04T08:51:28.640Z,20.55
2017-09-04T08:52:50.524Z,20.55
2017-09-04T08:54:12.349Z,20.55
2017-09-04T08:55:33.892Z,20.55
2017-09-04T08:56:55.430Z,20.59
2017-09-04T08:58:17.895Z,20.66
2017-09-04T08:59:39.751Z,20.62
2017-09-04T09:01:01.274Z,20.55
2017-09-04T09:02:23.729Z,20.57
2017-09-04T09:03:45.871Z,20.61
2017-09-04T09:05:07.398Z,20.77
2017-09-04T09:06:29.992Z,20.91
2017-09-04T09:07:52.472Z,20.89
2017-09-04T09:09:14.301Z,20.99
2017-09-04T09:10:36.791Z,21.04
2017-09-04T09:11:59.396Z,21.06
2017-09-04T09:13:21.854Z,21.03
2017-09-04T09:14:45.342Z,21.13
2017-09-04T09:16:07.526Z,21.03
2017-09-04T09:17:29.037Z,21.14
2017-09-04T09:18:50.969Z,21.16
2017-09-04T09:20:13.162Z,21.13
2017-09-04T09:21:34.993Z,21.17
2017-09-04T09:22:56.823Z,21.25
2017-09-04T09:24:19.475Z,21.17
2017-09-04T09:25:41.993Z,21.24
2017-09-04T09:27:03.815Z,21.31
2017-09-04T09:28:25.994Z,21.31
2017-09-04T09:29:48.155Z,21.35
2017-09-04T09:31:11.075Z,21.16
2017-09-04T09:32:33.243Z,21.27
2017-09-04T09:33:55.082Z,21.29
2017-09-04T09:35:16.943Z,21.24
2017-09-04T09:36:39.430Z,21.13
2017-09-04T09:38:01.734Z,21.27
2017-09-04T09:39:23.575Z,21.19
2017-09-04T09:40:45.475Z,21.27
2017-09-04T09:42:08.080Z,21.28
2017-09-04T09:43:29.600Z,21.42
2017-09-04T09:44:51.771Z,21.27
2017-09-04T09:46:14.321Z,21.19
2017-09-04T09:47:36.413Z,21.12
2017-09-04T09:48:58.274Z,21.21
2017-09-04T09:50:20.089Z,21.22
2017-09-04T09:51:41.931Z,21.06
2017-09-04T09:53:04.011Z,21.06
2017-09-04T09:54:25.520Z,21.19
2017-09-04T09:55:47.360Z,21.25
2017-09-04T09:57:08.923Z,21.29
2017-09-04T09:58:31.044Z,21.34
2017-09-04T09:59:52.954Z,21.47
2017-09-04T10:01:15.113Z,21.52
2017-09-04T10:02:36.943Z,21.54
2017-09-04T10:03:59.620Z,21.68
2017-09-04T10:05:21.893Z,21.75
2017-09-04T10:06:44.176Z,21.8
2017-09-04T10:08:06.349Z,21.94
2017-09-04T10:09:28.543Z,22.02
2017-09-04T10:10:50.403Z,21.92
2017-09-04T10:12:12.564Z,22.03
2017-09-04T10:13:34.526Z,21.98
2017-09-04T10:14:56.616Z,22
2017-09-04T10:16:18.154Z,22.02
2017-09-04T10:17:39.993Z,22.09
2017-09-04T10:19:02.160Z,22.18
2017-09-04T10:20:23.966Z,22.1
2017-09-04T10:21:46.504Z,22.09
2017-09-04T10:23:08.664Z,21.98
2017-09-04T10:24:30.919Z,21.94
2017-09-04T10:25:53.127Z,22
2017-09-04T10:27:15.383Z,22.18
2017-09-04T10:28:37.564Z,22.18
2017-09-04T10:29:59.401Z,22.27
2017-09-04T10:31:22.352Z,22.31
2017-09-04T10:32:44.513Z,22.12
2017-09-04T10:34:06.683Z,22.2
2017-09-04T10:35:28.250Z,22.35
2017-09-04T10:36:50.160Z,22.6
2017-09-04T10:38:11.844Z,22.72
2017-09-04T10:39:34.362Z,22.86
2017-09-04T10:40:56.573Z,22.95
2017-09-04T10:42:18.984Z,22.98
2017-09-04T10:43:41.149Z,22.98
2017-09-04T10:45:03.294Z,22.95
2017-09-04T10:46:25.464Z,23.02
2017-09-04T10:47:47.223Z,22.83
2017-09-04T10:49:08.752Z,22.12
2017-09-04T10:50:30.263Z,22.06
2017-09-04T10:51:52.409Z,22.12
2017-09-04T10:53:14.183Z,22.22
2017-09-04T10:54:36.342Z,22.21
2017-09-04T10:55:58.512Z,22.25
2017-09-04T10:57:20.081Z,22.36
2017-09-04T10:58:42.490Z,22.37
2017-09-04T11:00:05.106Z,22.28
2017-09-04T11:01:27.272Z,22.55
2017-09-04T11:02:49.113Z,22.15
2017-09-04T11:04:10.993Z,22.12
2017-09-04T11:05:33.486Z,22.12
2017-09-04T11:06:55.685Z,22.02
2017-09-04T11:08:17.856Z,22.05
2017-09-04T11:09:40.514Z,22.02
2017-09-04T11:11:02.369Z,22.03
2017-09-04T11:12:24.818Z,21.96
2017-09-04T11:13:47.192Z,21.98
2017-09-04T11:15:08.966Z,21.98
2017-09-04T11:16:30.801Z,21.91
2017-09-04T11:17:52.660Z,21.91
2017-09-04T11:19:14.179Z,21.71
2017-09-04T11:20:36.634Z,21.61
2017-09-04T11:21:58.889Z,21.54
2017-09-04T11:23:20.386Z,21.61
2017-09-04T11:24:42.244Z,21.72
2017-09-04T11:26:04.432Z,21.68
2017-09-04T11:27:26.617Z,21.68
2017-09-04T11:28:49.190Z,21.82
2017-09-04T11:30:11.133Z,21.92
2017-09-04T11:31:33.276Z,22.07
2017-09-04T11:32:55.424Z,22.06
2017-09-04T11:34:17.252Z,22.03
2017-09-04T11:35:39.766Z,22.1
2017-09-04T11:37:02.193Z,22.2
2017-09-04T11:38:24.833Z,22.36
2017-09-04T11:39:46.344Z,22.27
2017-09-04T11:41:08.821Z,22.33
2017-09-04T11:42:31.334Z,22.35
2017-09-04T11:43:53.174Z,22.4
2017-09-04T11:45:15.432Z,22.35
2017-09-04T11:46:37.584Z,22.4
2017-09-04T11:48:00.113Z,22.51
2017-09-04T11:49:22.287Z,22.6
2017-09-04T11:50:44.554Z,22.7
2017-09-04T11:52:07.054Z,22.73
2017-09-04T11:53:29.624Z,22.85
2017-09-04T11:54:51.506Z,22.83
2017-09-04T11:56:13.646Z,22.75
2017-09-04T11:57:36.188Z,22.76
2017-09-04T11:58:59.016Z,22.82
2017-09-04T12:00:20.905Z,22.72
2017-09-04T12:01:43.046Z,22.68
2017-09-04T12:03:04.956Z,22.72
2017-09-04T12:04:27.472Z,22.72
2017-09-04T12:05:49.329Z,22.76
2017-09-04T12:07:11.844Z,22.82
2017-09-04T12:08:33.998Z,22.9
2017-09-04T12:09:56.561Z,22.98
2017-09-04T12:11:18.734Z,22.97
2017-09-04T12:12:40.914Z,22.98
2017-09-04T12:14:03.103Z,22.95
2017-09-04T12:15:25.604Z,22.98
2017-09-04T12:16:47.775Z,23.09
2017-09-04T12:18:09.694Z,22.95
2017-09-04T12:19:32.175Z,22.97
2017-09-04T12:20:55.055Z,22.85
2017-09-04T12:22:17.236Z,22.9
2017-09-04T12:23:39.761Z,22.9
2017-09-04T12:25:01.944Z,22.9
2017-09-04T12:26:24.105Z,22.98
2017-09-04T12:27:46.254Z,22.98
2017-09-04T12:29:07.792Z,23.07
2017-09-04T12:30:30.319Z,22.98
2017-09-04T12:31:53.036Z,23
2017-09-04T12:33:15.565Z,23
2017-09-04T12:34:37.747Z,22.98
2017-09-04T12:35:59.903Z,23
2017-09-04T12:37:22.414Z,22.95
2017-09-04T12:38:43.933Z,22.9
2017-09-04T12:40:05.782Z,22.9
2017-09-04T12:41:27.964Z,22.88
2017-09-04T12:42:49.831Z,22.7
2017-09-04T12:44:12.372Z,22.55
2017-09-04T12:45:34.223Z,22.43
2017-09-04T12:46:56.153Z,22.39
2017-09-04T12:48:18.654Z,22.3
2017-09-04T12:49:40.801Z,22.24
2017-09-04T12:51:03.353Z,22.18
2017-09-04T12:52:25.494Z,22.03
2017-09-04T12:53:47.694Z,22.1
2017-09-04T12:55:09.645Z,21.98
2017-09-04T12:56:32.124Z,22.06
2017-09-04T12:57:53.968Z,22.2
2017-09-04T12:59:16.781Z,22.14
2017-09-04T13:00:38.631Z,22.05
2017-09-04T13:02:00.818Z,22.02
2017-09-04T13:03:23.314Z,21.96
2017-09-04T13:04:45.385Z,22.05
2017-09-04T13:06:07.874Z,21.99
2017-09-04T13:07:30.150Z,22.05
2017-09-04T13:08:51.982Z,21.99
2017-09-04T13:10:14.385Z,22.1
2017-09-04T13:11:36.868Z,22.17
2017-09-04T13:12:58.715Z,22.03
2017-09-04T13:14:21.204Z,21.92
2017-09-04T13:15:43.715Z,21.98
2017-09-04T13:17:06.219Z,22.03
2017-09-04T13:18:28.713Z,22.07
2017-09-04T13:19:50.592Z,21.98
2017-09-04T13:21:12.999Z,21.94
2017-09-04T13:22:35.553Z,21.88
2017-09-04T13:23:57.375Z,21.75
2017-09-04T13:25:19.229Z,21.74
2017-09-04T13:26:41.402Z,21.74
2017-09-04T13:28:03.223Z,21.72
2017-09-04T13:29:25.423Z,21.62
2017-09-04T13:30:47.923Z,21.74
2017-09-04T13:32:10.102Z,21.69
2017-09-04T13:33:32.582Z,21.53
2017-09-04T13:34:54.801Z,21.37
2017-09-04T13:36:16.982Z,21.42
2017-09-04T13:37:39.176Z,21.28
2017-09-04T13:39:01.654Z,21.29
2017-09-04T13:40:23.183Z,21.25
2017-09-04T13:41:45.010Z,21.31
2017-09-04T13:43:07.843Z,21.21
2017-09-04T13:44:30.010Z,21.32
2017-09-04T13:45:51.864Z,21.34
2017-09-04T13:47:14.163Z,21.35
2017-09-04T13:48:35.934Z,21.4
2017-09-04T13:49:58.102Z,21.49
2017-09-04T13:51:19.603Z,21.54
2017-09-04T13:52:41.120Z,21.59
2017-09-04T13:54:03.895Z,21.67
2017-09-04T13:55:25.765Z,21.74
2017-09-04T13:56:48.273Z,21.83
2017-09-04T13:58:10.202Z,21.9
2017-09-04T13:59:32.802Z,21.88
2017-09-04T14:00:54.663Z,21.99
2017-09-04T14:02:16.867Z,21.96
2017-09-04T14:03:39.041Z,22.14
2017-09-04T14:05:01.135Z,22.18
2017-09-04T14:06:23.611Z,22.27
2017-09-04T14:07:45.784Z,22.4
2017-09-04T14:09:07.964Z,22.37
2017-09-04T14:10:30.505Z,22.54
2017-09-04T14:11:52.373Z,22.51
2017-09-04T14:13:14.645Z,22.2
2017-09-04T14:14:36.894Z,22.17
2017-09-04T14:15:59.405Z,22.07
2017-09-04T14:17:21.595Z,22.02
2017-09-04T14:18:43.786Z,22.02
2017-09-04T14:20:06.292Z,22.02
2017-09-04T14:21:28.372Z,22.17
2017-09-04T14:22:50.223Z,22.14
2017-09-04T14:24:12.751Z,22.03
2017-09-04T14:25:34.990Z,22.06
2017-09-04T14:26:56.802Z,22.21
2017-09-04T14:28:19.296Z,22.31
2017-09-04T14:29:41.457Z,22.49
2017-09-04T14:31:03.959Z,22.35
2017-09-04T14:32:26.083Z,22.45
2017-09-04T14:33:47.592Z,22.52
2017-09-04T14:35:09.513Z,22.45
2017-09-04T14:36:32.143Z,22.39
2017-09-04T14:37:54.986Z,22.37
2017-09-04T14:39:17.162Z,22.35
2017-09-04T14:40:38.998Z,22.2
2017-09-04T14:42:01.473Z,22.2
2017-09-04T14:43:23.689Z,22.02
2017-09-04T14:44:46.009Z,21.94
2017-09-04T14:46:08.305Z,21.94
2017-09-04T14:47:30.813Z,22.03
2017-09-04T14:48:53.452Z,21.99
2017-09-04T14:50:15.724Z,22.03
2017-09-04T14:51:38.282Z,22.15
2017-09-04T14:53:00.801Z,22.15
2017-09-04T14:54:23.633Z,22.14
2017-09-04T14:55:45.576Z,22.09
2017-09-04T14:57:08.069Z,21.94
2017-09-04T14:58:30.583Z,21.99
2017-09-04T14:59:55.327Z,21.94
2017-09-04T15:01:17.832Z,21.98
2017-09-04T15:02:40.453Z,22.07
2017-09-04T15:04:02.975Z,22.2
2017-09-04T15:05:25.582Z,22.18
2017-09-04T15:06:47.472Z,22.2
2017-09-04T15:08:09.643Z,22.15
2017-09-04T15:09:31.866Z,22.06
2017-09-04T15:10:54.412Z,22.14
2017-09-04T15:12:16.563Z,22
2017-09-04T15:13:38.729Z,21.99
2017-09-04T15:15:00.909Z,21.91
2017-09-04T15:16:23.014Z,21.86
2017-09-04T15:17:45.186Z,21.8
2017-09-04T15:19:07.180Z,21.75
2017-09-04T15:20:29.106Z,21.72
2017-09-04T15:21:51.433Z,21.77
2017-09-04T15:23:13.932Z,21.71
2017-09-04T15:24:35.784Z,21.77
2017-09-04T15:25:57.989Z,21.67
2017-09-04T15:27:20.154Z,21.83
2017-09-04T15:28:42.799Z,21.77
2017-09-04T15:30:04.975Z,21.88
2017-09-04T15:31:27.168Z,21.84
2017-09-04T15:32:49.524Z,21.88
2017-09-04T15:34:12.016Z,21.91
2017-09-04T15:35:34.527Z,21.92
2017-09-04T15:36:56.723Z,21.83
2017-09-04T15:38:19.591Z,21.8
2017-09-04T15:39:41.756Z,21.83
2017-09-04T15:41:03.963Z,21.8
2017-09-04T15:42:26.142Z,21.77
2017-09-04T15:43:47.975Z,21.8
2017-09-04T15:45:10.514Z,21.83
2017-09-04T15:46:32.366Z,21.86
2017-09-04T15:47:54.951Z,21.75
2017-09-04T15:49:17.663Z,21.74
2017-09-04T15:50:39.514Z,21.64
2017-09-04T15:52:02.084Z,21.75
2017-09-04T15:53:24.562Z,21.62
2017-09-04T15:54:46.482Z,21.67
2017-09-04T15:56:09.138Z,21.71
2017-09-04T15:57:31.622Z,21.69
2017-09-04T15:58:54.174Z,21.67
2017-09-04T16:00:16.604Z,21.61
2017-09-04T16:01:38.771Z,21.61
2017-09-04T16:03:01.374Z,21.61
2017-09-04T16:04:23.570Z,21.58
2017-09-04T16:05:46.465Z,21.61
2017-09-04T16:07:08.976Z,21.56
2017-09-04T16:08:31.142Z,21.58
2017-09-04T16:09:53.653Z,21.47
2017-09-04T16:11:15.864Z,21.52
2017-09-04T16:12:38.384Z,21.43
2017-09-04T16:14:00.896Z,21.49
2017-09-04T16:15:23.457Z,21.52
2017-09-04T16:16:45.887Z,21.47
2017-09-04T16:18:08.090Z,21.44
2017-09-04T16:19:30.594Z,21.42
2017-09-04T16:20:52.443Z,21.42
2017-09-04T16:22:14.922Z,21.34
2017-09-04T16:23:37.415Z,21.42
2017-09-04T16:24:59.338Z,21.42
2017-09-04T16:26:21.826Z,21.34
2017-09-04T16:27:44.426Z,21.32
2017-09-04T16:29:06.273Z,21.31
2017-09-04T16:30:28.534Z,21.27
2017-09-04T16:31:50.767Z,21.22
2017-09-04T16:33:13.297Z,21.13
2017-09-04T16:34:35.824Z,21.22
2017-09-04T16:35:57.993Z,21.13
2017-09-04T16:37:20.163Z,21.06
2017-09-04T16:38:42.264Z,20.87
2017-09-04T16:40:04.425Z,20.84
2017-09-04T16:41:26.933Z,20.8
2017-09-04T16:42:49.211Z,20.79
2017-09-04T16:44:11.770Z,20.79
2017-09-04T16:45:33.644Z,20.77
2017-09-04T16:46:55.161Z,20.61
2017-09-04T16:48:16.663Z,20.62
2017-09-04T16:49:39.213Z,20.55
2017-09-04T16:51:01.370Z,20.52
2017-09-04T16:52:23.866Z,20.51
2017-09-04T16:53:45.972Z,20.41
2017-09-04T16:55:08.934Z,20.39
2017-09-04T16:56:31.554Z,20.32
2017-09-04T16:57:54.174Z,20.31
2017-09-04T16:59:16.464Z,20.17
2017-09-04T17:00:39.418Z,20.21
2017-09-04T17:02:01.623Z,20.11
2017-09-04T17:03:24.464Z,20.13
2017-09-04T17:04:46.636Z,20.1
2017-09-04T17:06:09.623Z,19.95
2017-09-04T17:07:31.815Z,19.95
2017-09-04T17:08:53.664Z,19.88
2017-09-04T17:10:15.964Z,19.94
2017-09-04T17:11:38.506Z,19.8
2017-09-04T17:13:00.684Z,19.78
2017-09-04T17:14:22.859Z,19.69
2017-09-04T17:15:45.392Z,19.63
2017-09-04T17:17:07.671Z,19.54
2017-09-04T17:18:29.517Z,19.43
2017-09-04T17:19:52.015Z,19.33
2017-09-04T17:21:14.193Z,19.25
2017-09-04T17:22:36.059Z,19.14
2017-09-04T17:23:58.566Z,19.11
2017-09-04T17:25:21.085Z,18.99
2017-09-04T17:26:43.594Z,18.9
2017-09-04T17:28:06.162Z,18.84
2017-09-04T17:29:28.909Z,18.72
2017-09-04T17:30:51.085Z,18.63
2017-09-04T17:32:12.936Z,18.57
2017-09-04T17:33:35.483Z,18.47
2017-09-04T17:34:57.340Z,18.27
2017-09-04T17:36:19.528Z,18.2
2017-09-04T17:37:41.047Z,18.18
2017-09-04T17:39:03.902Z,18.07
2017-09-04T17:40:25.433Z,17.97
2017-09-04T17:41:47.974Z,17.81
2017-09-04T17:43:10.482Z,17.78
2017-09-04T17:44:33.108Z,17.79
2017-09-04T17:45:54.953Z,17.81
2017-09-04T17:47:16.801Z,17.82
2017-09-04T17:48:38.964Z,17.77
2017-09-04T17:50:01.799Z,17.81
2017-09-04T17:51:24.460Z,17.82
2017-09-04T17:52:46.633Z,17.78
2017-09-04T17:54:08.175Z,17.71